Startpagina
METAR-TAF:

METAR-TAF

Vliegvelden :

Luchthaven Grootfontein

Grootfontein, Namibië

breedte: 19-36S, lengte: 018-07E, hoogte: 1411 m

Actueel weer

Dit bericht is 7 uur en het 38 minuten geleden gemaakt, om 18:00 UTC
Wind 3 kt uit het oostnoordoosten
Temperatuur 24°C
Vochtigheid 29%
Druk 1019 hPa
Zicht 10 km of meer
geen wolken onder 1500 m en geen cumulonimbus

METAR: FYGF 281800Z 06003KT 9999 CAVOK 24/05 Q1019

Tijdstip: 03:38 (01:38 UTC)

Verwachting

Dit bericht is 2 uur en het 38 minuten geleden gemaakt, om 23:00 UTC
Verwachting geldig van 29 om 00 UTC tot 29 om 09 UTC
Wind 3 kt uit het oostnoordoosten
Zicht 10 km of meer
geen wolken onder 1500 m en geen cumulonimbus
Wijzigt naar
van 29 om 01 UTC tot 29 om 03 UTC
Wind 3 kt uit het westzuidwesten
Wijzigt naar
van 29 om 04 UTC tot 29 om 06 UTC
Wind 4 kt uit het noorden

TAF: FYGF 282300Z 2900/2909 06003KT CAVOK BECMG 2901/2903 24003KT BECMG 2904/2906 01004KT

Waarnemingen en weersverwachtingen van meer dan 4000 vliegvelden (METAR en TAF).

De beschikbare stations zijn de gele en rode punten op de kaart.

Ga met uw muis naar het station om de naam te zien.

Klik dan om waarnemingen en weersverwachtingen te zien.

kaart wijzigen: klik op de groene knoppen met een zwart kruis om in te zoomen, op de groene knop met een streepje om uit te zoomen of op de groene pijlen voor aangrenzende kaarten.


METAR-TAF: